Time;durP1;ratioP1;P1;durP2;ratioP2;P2;SDS_P1;SDS_P2;PMS_P1;PMS_P2;Temp;Humidity;BMP_temperature;BMP_pressure;BME280_temperature;BME280_humidity;BME280_pressure;Samples;Min_cycle;Max_cycle;Signal;HPM_P1;HPM_P2
2023/02/25 00:02:14;;;;;;;29.08;7.07;;;8.40;99.90;;;8.45;73.01;100808.31;5036647;28;20049;-69
2023/02/25 00:04:43;;;;;;;24.83;6.80;;;8.40;99.90;;;8.35;72.52;100781.06;5036548;28;20037;-69
2023/02/25 00:07:11;;;;;;;27.77;7.28;;;8.40;99.90;;;8.54;71.55;100816.25;5036455;28;20053;-69
2023/02/25 00:09:41;;;;;;;32.95;7.28;;;8.50;99.90;;;8.52;70.72;100812.72;5036750;28;20399;-69
2023/02/25 00:12:10;;;;;;;19.77;6.45;;;8.50;99.90;;;8.27;70.20;100805.63;5036235;28;20069;-69
2023/02/25 00:14:39;;;;;;;22.58;6.88;;;8.40;99.90;;;8.25;70.63;100781.00;5035000;28;20045;-69
2023/02/25 00:17:07;;;;;;;22.70;7.50;;;8.30;99.90;;;8.45;71.14;100789.88;5035953;28;20491;-69
2023/02/25 00:19:36;;;;;;;23.77;6.88;;;8.40;99.90;;;7.32;70.41;100603.34;5036041;28;20045;-69
2023/02/25 00:22:04;;;;;;;30.35;7.25;;;8.50;99.90;;;8.59;71.82;100812.78;5034907;28;20060;-69
2023/02/25 00:24:33;;;;;;;35.28;8.00;;;8.50;99.90;;;8.35;73.93;100807.41;5036167;28;20387;-69
2023/02/25 00:27:03;;;;;;;28.23;6.93;;;8.30;99.90;;;8.14;74.98;100799.41;5034801;28;20066;-69
2023/02/25 00:29:31;;;;;;;36.53;7.78;;;8.10;99.90;;;7.75;76.86;100768.50;5034839;28;20053;-69
2023/02/25 00:32:00;;;;;;;31.25;8.32;;;7.90;99.90;;;8.11;77.16;100805.53;5036303;28;20052;-69
2023/02/25 00:34:28;;;;;;;32.28;7.43;;;7.90;99.90;;;8.22;76.69;100784.50;5035711;28;20072;-69
2023/02/25 00:36:57;;;;;;;38.05;8.68;;;8.10;99.90;;;8.11;77.57;100797.63;5034329;28;20063;-69
2023/02/25 00:39:40;;;;;;;30.10;8.13;;;8.00;99.90;;;8.17;77.65;100796.75;5035840;28;20096;-69
2023/02/25 00:42:12;;;;;;;26.75;7.38;;;8.00;99.90;;;7.61;77.22;100709.63;5034571;28;20065;-68
2023/02/25 00:44:44;;;;;;;44.22;9.65;;;8.00;99.90;;;7.86;76.18;100726.41;5034589;28;20052;-69
2023/02/25 00:47:14;;;;;;;30.73;7.68;;;8.10;99.90;;;8.17;75.80;100805.56;5035854;28;20052;-69
2023/02/25 00:49:42;;;;;;;26.05;8.13;;;8.10;99.90;;;8.06;76.11;100777.41;5035403;28;20407;-69
2023/02/25 00:52:11;;;;;;;26.70;8.07;;;8.20;99.90;;;8.25;76.31;100807.38;5050925;28;20053;-69
2023/02/25 00:54:40;;;;;;;36.65;8.18;;;8.20;99.90;;;8.12;77.32;100817.84;5035349;28;20396;-69
2023/02/25 00:57:10;;;;;;;25.52;7.97;;;8.10;99.90;;;8.20;77.28;100817.88;5035498;28;20041;-69
2023/02/25 00:59:38;;;;;;;29.02;6.95;;;8.10;99.90;;;8.19;77.26;100816.97;5033940;28;20053;-69
2023/02/25 01:02:06;;;;;;;18.92;6.47;;;8.20;99.90;;;8.35;76.81;100814.44;5035383;28;20053;-69
2023/02/25 01:04:35;;;;;;;25.58;7.10;;;8.20;99.90;;;8.16;76.13;100808.19;5050835;28;20079;-69
2023/02/25 01:07:04;;;;;;;17.50;6.22;;;8.10;99.90;;;8.13;75.70;100809.03;5035103;28;20053;-69
2023/02/25 01:09:33;;;;;;;19.98;6.20;;;8.10;99.90;;;8.00;74.61;100795.81;5035068;28;20378;-69
2023/02/25 01:12:01;;;;;;;19.48;6.28;;;8.00;99.90;;;8.09;74.02;100820.44;5033761;28;20041;-69
2023/02/25 01:14:32;;;;;;;19.13;6.85;;;8.00;99.90;;;8.12;73.83;100820.47;5035250;28;20064;-69
2023/02/25 01:17:02;;;;;;;23.50;6.65;;;8.10;99.90;;;8.12;73.29;100823.09;5034859;28;20041;-69
2023/02/25 01:19:30;;;;;;;20.38;7.15;;;8.10;99.90;;;8.21;73.18;100828.41;5033795;28;20053;-69
2023/02/25 01:21:59;;;;;;;24.20;6.15;;;8.10;99.90;;;8.25;73.51;100802.97;5035146;28;20081;-69
2023/02/25 01:24:30;;;;;;;24.58;7.30;;;8.20;99.90;;;8.23;73.63;100837.19;5034764;28;20045;-69
2023/02/25 01:27:02;;;;;;;23.92;6.07;;;8.20;99.90;;;8.18;74.50;100832.78;5035122;28;20087;-69
2023/02/25 01:29:35;;;;;;;23.55;7.22;;;8.10;99.90;;;8.29;74.84;100824.94;5033749;28;20408;-69
2023/02/25 01:32:05;;;;;;;29.83;7.57;;;8.20;99.90;;;8.03;75.75;100833.56;5035007;28;20128;-69
2023/02/25 01:34:34;;;;;;;23.15;6.63;;;8.00;99.90;;;8.17;75.21;100831.91;5034953;28;20049;-69
2023/02/25 01:37:04;;;;;;;26.63;6.97;;;8.10;99.90;;;8.18;75.20;100830.16;5034333;28;20049;-69
2023/02/25 01:39:33;;;;;;;25.42;6.40;;;8.10;99.90;;;8.13;74.09;100824.84;5034803;28;20042;-69
2023/02/25 01:42:05;;;;;;;28.48;6.63;;;8.00;99.90;;;7.95;73.43;100823.91;5034447;28;20408;-69
2023/02/25 01:45:25;;;;;;;23.65;7.22;;;8.00;99.90;;;7.89;73.59;100814.22;5034771;28;20045;-69
2023/02/25 01:48:00;;;;;;;37.00;7.18;;;7.90;99.90;;;8.07;72.75;100822.19;4993082;28;20115;-69
2023/02/25 01:50:38;;;;;;;23.55;7.10;;;8.00;99.90;;;7.96;73.00;100826.53;5034681;28;20124;-69
2023/02/25 01:53:08;;;;;;;20.83;6.30;;;7.90;99.90;;;8.14;72.90;100825.75;5034633;28;20072;-69
2023/02/25 01:55:40;;;;;;;28.08;6.88;;;8.00;99.90;;;8.24;72.63;100822.28;5034547;28;20045;-69
2023/02/25 01:58:10;;;;;;;27.27;7.10;;;8.10;99.90;;;8.02;73.09;100823.94;5034135;28;20377;-69
2023/02/25 02:00:41;;;;;;;31.48;7.28;;;8.10;99.90;;;8.26;73.20;100819.69;5034378;28;20086;-69
2023/02/25 02:03:14;;;;;;;25.60;5.93;;;8.20;99.90;;;8.40;73.18;100817.97;5034123;28;20136;-69
2023/02/25 02:06:05;;;;;;;27.10;6.78;;;8.30;99.90;;;8.41;72.45;100810.06;5034509;28;20064;-69
2023/02/25 02:08:35;;;;;;;27.75;7.88;;;8.30;99.90;;;8.37;73.02;100831.13;5034285;28;20447;-69
2023/02/25 02:11:05;;;;;;;26.88;8.23;;;8.30;99.90;;;8.34;72.66;100846.94;5033907;28;20068;-69
2023/02/25 02:13:37;;;;;;;20.73;6.88;;;8.40;99.90;;;8.13;73.01;100838.03;5034153;28;20052;-69
2023/02/25 02:16:22;;;;;;;23.10;6.72;;;8.20;99.90;;;8.11;73.92;100838.88;5033967;28;20041;-69
2023/02/25 02:18:57;;;;;;;20.60;6.57;;;8.10;99.90;;;8.09;73.89;100836.25;5032822;28;20140;-69
2023/02/25 02:21:53;;;;;;;18.27;5.93;;;8.00;99.90;;;7.87;74.55;100818.59;5032807;28;20453;-69
2023/02/25 02:25:06;;;;;;;25.90;6.55;;;7.90;99.90;;;7.84;74.57;100830.88;5032698;28;20056;-69
2023/02/25 02:28:01;;;;;;;19.83;6.78;;;7.80;99.90;;;7.91;74.67;100825.63;5028533;28;20061;-69
2023/02/25 02:31:08;;;;;;;19.33;6.47;;;7.80;99.90;;;7.97;74.70;100832.69;5033872;28;20052;-69
2023/02/25 02:33:47;;;;;;;24.90;7.20;;;7.90;99.90;;;8.02;74.65;100826.56;5049261;28;20071;-69
2023/02/25 02:36:24;;;;;;;21.08;6.45;;;7.90;99.90;;;7.68;74.91;100829.00;5033737;28;20057;-69
2023/02/25 02:39:02;;;;;;;19.25;5.97;;;7.70;99.90;;;7.83;75.44;100829.97;5032375;28;20052;-69
2023/02/25 02:41:35;;;;;;;18.60;5.93;;;7.70;99.90;;;7.52;74.98;100790.28;5032379;28;20068;-69
2023/02/25 02:44:10;;;;;;;20.73;5.97;;;7.70;99.90;;;7.70;76.01;100827.25;5032006;28;20100;-69
2023/02/25 02:46:46;;;;;;;24.10;7.75;;;7.60;99.90;;;7.77;76.36;100831.69;5032185;28;20053;-69
2023/02/25 02:49:22;;;;;;;19.63;6.50;;;7.60;99.90;;;7.65;76.57;100829.84;5033507;28;20107;-71
2023/02/25 02:51:55;;;;;;;21.30;7.38;;;7.50;99.90;;;7.58;77.10;100833.31;5032197;28;20061;-69
2023/02/25 02:54:27;;;;;;;20.70;6.50;;;7.40;99.90;;;7.34;77.90;100814.72;5032144;28;20061;-69
2023/02/25 02:56:58;;;;;;;32.97;7.32;;;7.30;99.90;;;7.85;77.41;100833.50;5048671;28;20073;-69
2023/02/25 02:59:33;;;;;;;24.00;6.32;;;7.60;99.90;;;7.30;77.93;100795.38;5048710;28;20584;-69
2023/02/25 03:02:09;;;;;;;26.58;7.35;;;7.50;99.90;;;7.62;77.81;100834.22;5032070;28;20520;-69
2023/02/25 03:04:41;;;;;;;26.27;7.18;;;7.40;99.90;;;7.58;78.58;100821.91;5031989;28;20049;-69
2023/02/25 03:07:12;;;;;;;24.48;7.75;;;7.40;99.90;;;7.90;77.63;100830.88;5031997;28;20149;-69
2023/02/25 03:09:46;;;;;;;28.63;7.13;;;7.60;99.90;;;8.06;76.79;100832.72;5033230;28;20045;-69
2023/02/25 03:12:15;;;;;;;29.65;8.15;;;7.80;99.90;;;8.18;76.00;100836.31;5031997;28;20060;-70
2023/02/25 03:14:44;;;;;;;28.88;7.72;;;8.00;99.90;;;8.20;74.98;100802.94;5031668;28;20041;-69
2023/02/25 03:17:18;;;;;;;30.85;7.75;;;8.20;99.90;;;8.32;74.35;100817.06;5031720;28;20393;-69
2023/02/25 03:19:52;;;;;;;28.83;8.10;;;8.20;99.90;;;8.34;73.82;100817.97;5031528;28;20250;-69
2023/02/25 03:22:26;;;;;;;27.77;7.88;;;8.30;99.90;;;8.48;72.84;100829.44;5032028;28;20041;-68
2023/02/25 03:25:01;;;;;;;23.95;7.05;;;8.40;99.90;;;8.42;72.90;100832.06;5031440;28;20053;-70
2023/02/25 03:27:35;;;;;;;23.67;7.25;;;8.30;99.90;;;8.19;73.45;100830.16;5031615;28;20050;-69
2023/02/25 03:30:11;;;;;;;26.88;7.35;;;8.20;99.90;;;8.34;73.20;100839.94;5032789;28;20385;-69
2023/02/25 03:32:47;;;;;;;30.92;8.07;;;8.20;99.90;;;8.37;72.67;100831.13;5031648;28;20508;-69
2023/02/25 03:35:20;;;;;;;23.23;7.90;;;8.30;99.90;;;8.37;72.29;100844.31;5032852;28;20041;-69
2023/02/25 03:37:52;;;;;;;25.98;7.03;;;8.30;99.90;;;8.38;72.76;100849.56;5033114;28;20056;-69
2023/02/25 03:40:22;;;;;;;36.35;7.72;;;8.30;99.90;;;8.36;73.17;100837.28;5032846;28;20132;-69
2023/02/25 03:42:57;;;;;;;29.70;7.93;;;8.30;99.90;;;8.25;73.51;100829.31;5048059;28;20060;-69
2023/02/25 03:45:25;;;;;;;32.45;8.48;;;8.20;99.90;;;8.35;73.89;100843.41;5032865;28;20065;-69
2023/02/25 03:47:57;;;;;;;25.55;6.90;;;8.30;99.90;;;8.22;72.92;100797.69;5032724;28;20046;-69
2023/02/25 03:50:32;;;;;;;29.40;8.75;;;8.30;99.90;;;8.28;72.51;100828.47;5048102;28;20041;-69
2023/02/25 03:53:03;;;;;;;31.88;8.23;;;8.30;99.90;;;8.36;72.79;100864.53;5047961;28;20077;-69
2023/02/25 03:56:11;;;;;;;31.70;7.60;;;8.30;99.90;;;8.06;73.55;100864.31;5021914;28;20049;-69
2023/02/25 03:58:44;;;;;;;21.42;6.70;;;8.10;99.90;;;7.95;74.54;100874.81;5031301;28;20049;-68
2023/02/25 04:01:16;;;;;;;19.27;6.30;;;7.90;99.90;;;7.87;74.32;100834.38;5032260;28;20041;-69
2023/02/25 04:03:47;;;;;;;16.40;6.20;;;7.80;99.90;;;7.91;73.53;100841.44;5031582;28;20057;-69
2023/02/25 04:06:16;;;;;;;14.18;6.45;;;7.90;99.90;;;7.56;73.27;100836.81;5031335;28;20058;-69
2023/02/25 04:08:44;;;;;;;14.88;5.82;;;7.60;99.90;;;7.65;72.97;100848.28;5031138;28;20046;-69
2023/02/25 04:11:12;;;;;;;16.52;5.82;;;7.50;99.90;;;7.65;72.47;100844.75;5032262;28;20116;-69
2023/02/25 04:13:43;;;;;;;15.23;6.50;;;7.60;99.90;;;7.49;72.67;100845.53;5030960;28;20455;-69
2023/02/25 04:16:12;;;;;;;24.27;6.68;;;7.40;99.90;;;7.59;72.06;100844.75;5030809;28;20062;-69
2023/02/25 04:18:41;;;;;;;22.25;6.57;;;7.50;99.90;;;7.64;72.10;100858.78;5031074;28;20061;-68
2023/02/25 04:21:28;;;;;;;24.67;6.35;;;7.50;99.90;;;7.71;71.65;100871.13;5032455;28;20037;-68
2023/02/25 04:23:57;;;;;;;27.83;7.35;;;7.60;99.90;;;7.66;71.83;100881.63;5030869;28;20045;-69
2023/02/25 04:26:26;;;;;;;16.35;5.47;;;7.60;99.90;;;7.63;70.67;100847.38;5032193;28;20142;-68
2023/02/25 04:28:54;;;;;;;15.15;5.47;;;7.70;99.90;;;7.78;70.20;100868.53;5032011;28;20052;-69
2023/02/25 04:31:23;;;;;;;17.00;5.53;;;7.70;99.90;;;7.90;69.89;100878.25;5031048;28;20041;-69
2023/02/25 04:33:51;;;;;;;13.90;5.38;;;7.80;99.90;;;7.92;70.01;100877.41;5033101;28;20053;-69
2023/02/25 04:36:28;;;;;;;18.67;5.55;;;7.80;99.90;;;8.01;69.62;100879.25;5035662;28;20096;-69
2023/02/25 04:38:58;;;;;;;17.58;6.00;;;7.90;99.90;;;7.82;69.65;100882.63;5051299;28;20385;-69
2023/02/25 04:41:30;;;;;;;16.92;6.25;;;7.80;99.90;;;8.07;69.96;100884.53;5035715;28;20047;-69
2023/02/25 04:44:02;;;;;;;18.00;6.00;;;7.90;99.90;;;8.04;69.97;100882.75;5035854;28;20086;-69
2023/02/25 04:46:32;;;;;;;22.67;6.35;;;8.00;99.90;;;8.06;70.13;100880.13;5035581;28;20037;-69
2023/02/25 04:49:01;;;;;;;22.75;6.80;;;7.90;99.90;;;8.26;70.44;100880.28;5035741;28;20045;-68
2023/02/25 04:51:31;;;;;;;20.75;6.10;;;8.10;99.90;;;7.67;70.66;100782.47;5035470;28;20054;-69
2023/02/25 04:53:59;;;;;;;17.85;6.18;;;8.00;99.90;;;7.66;70.05;100778.97;5035764;28;20060;-69
2023/02/25 04:56:28;;;;;;;26.33;7.00;;;8.20;99.90;;;8.18;70.63;100874.94;5035272;28;20103;-68
2023/02/25 04:58:57;;;;;;;24.48;6.82;;;8.10;99.90;;;8.26;70.31;100878.53;5035516;28;20041;-69
2023/02/25 05:01:25;;;;;;;24.63;6.78;;;8.20;99.90;;;8.30;70.81;100876.78;5035267;28;20054;-69
2023/02/25 05:03:55;;;;;;;29.42;7.10;;;8.20;99.90;;;8.40;70.51;100881.22;5035190;28;20053;-69
2023/02/25 05:06:24;;;;;;;22.00;7.43;;;8.30;99.90;;;8.26;71.32;100877.66;5035513;28;20558;-69
2023/02/25 05:08:56;;;;;;;26.65;7.20;;;8.20;99.90;;;8.31;71.22;100868.88;5035137;28;20507;-69
2023/02/25 05:11:27;;;;;;;23.27;6.88;;;8.20;99.90;;;8.18;70.45;100880.22;5035164;28;20033;-69
2023/02/25 05:13:56;;;;;;;23.42;6.80;;;8.10;99.90;;;8.14;69.94;100871.41;5035629;28;20049;-69
2023/02/25 05:16:25;;;;;;;21.58;6.18;;;8.10;99.90;;;8.20;69.98;100883.72;5035308;28;20455;-68
2023/02/25 05:18:54;;;;;;;21.48;5.75;;;8.10;99.90;;;8.01;69.79;100877.47;5050486;28;20057;-69
2023/02/25 05:21:26;;;;;;;30.70;6.82;;;8.00;99.90;;;8.23;69.08;100882.88;5033797;28;20041;-68
2023/02/25 05:23:55;;;;;;;26.10;7.20;;;8.10;99.90;;;8.06;69.48;100888.94;5034870;28;20038;-69
2023/02/25 05:26:25;;;;;;;26.38;7.13;;;8.00;99.90;;;8.23;69.62;100889.91;5035078;28;20099;-69
2023/02/25 05:28:56;;;;;;;21.83;8.03;;;8.10;99.90;;;7.69;69.70;100814.94;5035084;28;20052;-69
2023/02/25 05:31:25;;;;;;;27.75;6.15;;;8.10;99.90;;;8.31;70.08;100886.44;5034986;28;20042;-69
2023/02/25 05:33:54;;;;;;;23.33;7.57;;;8.20;99.90;;;8.05;69.78;100879.25;5034950;28;20644;-69
2023/02/25 05:36:23;;;;;;;21.88;6.65;;;8.10;99.90;;;8.31;69.78;100891.72;5034459;28;20145;-68
2023/02/25 05:39:01;;;;;;;30.25;6.75;;;8.20;99.90;;;8.28;70.09;100881.16;4995173;28;20050;-69
2023/02/25 05:41:30;;;;;;;21.50;6.53;;;8.10;99.90;;;8.34;70.00;100884.72;4995750;28;20100;-69
2023/02/25 05:43:58;;;;;;;25.58;7.38;;;8.20;99.90;;;8.31;70.67;100886.44;4995214;28;20121;-68
2023/02/25 05:46:27;;;;;;;20.85;6.60;;;8.20;99.90;;;7.81;71.92;100862.41;4994569;28;20046;-68
2023/02/25 05:48:55;;;;;;;29.35;7.93;;;8.00;99.90;;;8.04;72.18;100877.50;4995400;28;20070;-68
2023/02/25 05:51:24;;;;;;;21.95;6.68;;;8.10;99.90;;;8.04;72.39;100895.94;4994970;28;20096;-69
2023/02/25 05:53:52;;;;;;;25.17;7.32;;;8.00;99.90;;;7.83;74.41;100906.31;4993928;28;20038;-68
2023/02/25 05:56:26;;;;;;;29.98;7.05;;;7.80;99.90;;;7.93;74.28;100894.09;4995139;28;20038;-68
2023/02/25 05:58:57;;;;;;;32.15;7.57;;;7.80;99.90;;;7.77;74.99;100881.69;4994787;28;20037;-68
2023/02/25 06:01:28;;;;;;;27.77;8.60;;;7.80;99.90;;;7.67;74.57;100916.72;5010063;28;20148;-68
2023/02/25 06:03:57;;;;;;;18.75;6.05;;;7.70;99.90;;;7.69;74.35;100907.06;4994828;28;20504;-69
2023/02/25 06:06:28;;;;;;;19.13;6.70;;;7.70;99.90;;;7.69;74.79;100913.22;4994981;28;20038;-68
2023/02/25 06:08:57;;;;;;;;;;;7.60;99.90;;;7.75;74.19;100902.75;4995699;28;20129;-69
2023/02/25 06:11:30;;;;;;;15.07;6.10;;;7.70;99.90;;;7.61;73.20;100878.06;4994876;28;19926;-69
2023/02/25 06:14:00;;;;;;;17.67;6.53;;;7.70;99.90;;;7.61;73.27;100899.13;4994613;28;20486;-68
2023/02/25 06:16:30;;;;;;;18.20;5.90;;;7.50;99.90;;;7.45;73.55;100894.63;4994475;28;20129;-68
2023/02/25 06:19:01;;;;;;;22.17;5.65;;;7.40;99.90;;;6.66;73.56;100797.47;4994955;28;20101;-69
2023/02/25 06:21:30;;;;;;;20.83;5.53;;;7.30;99.90;;;6.57;73.89;100781.59;4993484;28;20078;-68
2023/02/25 06:23:58;;;;;;;15.73;5.10;;;7.20;99.90;;;7.38;73.64;100913.84;4994410;28;20077;-68
2023/02/25 06:26:28;;;;;;;17.05;5.55;;;7.30;99.90;;;6.41;74.24;100805.94;4994344;28;20448;-68
2023/02/25 06:28:57;;;;;;;13.98;5.38;;;7.00;99.90;;;6.97;74.03;100888.88;4994334;28;20456;-68
2023/02/25 06:31:26;;;;;;;14.30;5.32;;;7.00;99.90;;;7.11;74.63;100909.22;5009588;28;20405;-69
2023/02/25 06:33:55;;;;;;;20.75;6.55;;;7.00;99.90;;;7.18;74.47;100911.00;4994159;28;20125;-69
2023/02/25 06:36:23;;;;;;;15.77;5.72;;;7.10;99.90;;;7.14;75.79;100916.25;4993060;28;20074;-69
2023/02/25 06:38:52;;;;;;;18.85;6.75;;;7.00;99.90;;;7.39;74.82;100917.38;5030040;28;20456;-69
2023/02/25 06:41:22;;;;;;;16.05;5.95;;;7.20;99.90;;;7.50;74.75;100923.59;5033395;28;20129;-69
2023/02/25 06:43:53;;;;;;;21.70;6.82;;;7.40;99.90;;;7.63;74.38;100923.72;5033648;28;20048;-69
2023/02/25 06:46:23;;;;;;;24.15;7.07;;;7.40;99.90;;;7.71;74.17;100936.94;5033377;28;20045;-69
2023/02/25 06:48:53;;;;;;;20.67;6.72;;;7.60;99.90;;;7.47;75.37;100949.91;5032207;28;20422;-69
2023/02/25 06:51:21;;;;;;;26.05;7.15;;;7.50;99.90;;;7.50;77.77;100957.81;5033100;28;20570;-69
2023/02/25 06:53:51;;;;;;;20.95;6.50;;;7.50;99.90;;;7.57;78.73;100973.66;5033675;28;20038;-68
2023/02/25 06:56:21;;;;;;;13.57;5.43;;;7.50;99.90;;;7.50;78.18;100963.06;5032184;28;20045;-69
2023/02/25 06:58:55;;;;;;;10.25;4.35;;;7.40;99.90;;;7.55;77.82;100953.47;5032040;28;20136;-69
2023/02/25 07:01:23;;;;;;;12.18;5.20;;;7.50;99.90;;;7.66;78.02;100960.59;5032123;28;20057;-69
2023/02/25 07:03:52;;;;;;;11.90;5.38;;;7.50;99.90;;;7.63;78.32;100951.78;5032832;28;20407;-68
2023/02/25 07:06:21;;;;;;;14.07;5.72;;;7.50;99.90;;;7.50;77.68;100956.06;5032970;28;20072;-68
2023/02/25 07:08:49;;;;;;;16.55;5.07;;;7.40;99.90;;;7.42;77.78;100949.84;5033019;28;20103;-69
2023/02/25 07:11:29;;;;;;;21.60;5.88;;;7.30;99.90;;;7.51;77.24;100965.69;5033162;28;20064;-69
2023/02/25 07:13:58;;;;;;;15.88;5.82;;;7.40;99.90;;;7.64;77.03;100974.63;5032978;28;20110;-68
2023/02/25 07:16:28;;;;;;;23.53;6.67;;;7.50;99.90;;;7.60;76.74;100986.88;5032790;28;20167;-68
2023/02/25 07:19:01;;;;;;;18.30;6.28;;;7.50;99.90;;;7.02;76.90;100889.81;5032649;28;20720;-69
2023/02/25 07:21:30;;;;;;;20.35;5.47;;;7.50;99.90;;;7.49;77.44;100985.84;5032825;28;20047;-68
2023/02/25 07:23:59;;;;;;;16.30;6.15;;;7.50;99.90;;;7.37;77.54;100964.72;5032759;28;20543;-69
2023/02/25 07:26:28;;;;;;;12.27;5.57;;;7.40;99.90;;;7.49;77.41;100980.59;5032940;28;20093;-69
2023/02/25 07:28:59;;;;;;;17.98;6.43;;;7.40;99.90;;;7.48;77.43;100968.31;5031558;28;20046;-69
2023/02/25 07:31:28;;;;;;;16.85;6.20;;;7.40;99.90;;;7.40;77.12;100984.88;5032906;28;20041;-69
2023/02/25 07:34:02;;;;;;;18.80;6.37;;;7.50;99.90;;;7.54;77.46;100984.19;5032623;28;20043;-69
2023/02/25 07:36:31;;;;;;;20.10;6.25;;;7.50;99.90;;;7.49;77.66;100953.44;5032400;28;20041;-69
2023/02/25 07:39:02;;;;;;;17.27;6.60;;;7.60;99.90;;;7.43;77.52;100975.31;5032215;28;20095;-69
2023/02/25 07:41:31;;;;;;;19.90;6.15;;;7.40;99.90;;;7.43;78.04;100959.50;5048160;28;20053;-69
2023/02/25 07:44:06;;;;;;;16.77;6.47;;;7.50;99.90;;;7.54;78.21;100970.13;5031390;28;20076;-70
2023/02/25 07:46:34;;;;;;;21.45;5.95;;;7.50;99.90;;;7.84;78.59;100988.84;5032394;28;20065;-70
2023/02/25 07:49:03;;;;;;;17.40;6.53;;;7.70;99.90;;;8.21;78.70;100997.03;5032264;28;20037;-69
2023/02/25 07:51:31;;;;;;;23.27;7.00;;;8.00;99.90;;;8.16;77.72;100945.19;5032937;28;20132;-69
2023/02/25 07:54:00;;;;;;;21.77;6.65;;;8.30;99.90;;;8.70;78.00;100984.16;5032497;28;20440;-70
2023/02/25 07:56:30;;;;;;;20.83;6.47;;;8.50;99.90;;;9.03;77.05;100986.97;5032452;28;20041;-69
2023/02/25 07:58:59;;;;;;;25.08;7.30;;;8.90;99.90;;;9.52;75.41;101002.06;5032730;28;20067;-68
2023/02/25 08:01:33;;;;;;;24.60;6.32;;;9.30;99.90;;;9.95;73.84;101014.41;5032600;28;20046;-68
2023/02/25 08:04:04;;;;;;;24.65;6.93;;;9.70;99.90;;;10.11;71.48;101017.97;5032714;28;20103;-68
2023/02/25 08:06:37;;;;;;;21.80;6.80;;;10.10;99.90;;;10.68;70.89;101006.44;5031730;28;20111;-69
2023/02/25 08:09:06;;;;;;;26.27;6.82;;;10.50;99.90;;;10.88;69.38;100991.38;5034926;28;20408;-69
2023/02/25 08:11:35;;;;;;;29.13;7.57;;;10.80;99.90;;;10.95;68.00;101009.00;5035324;28;20072;-69
2023/02/25 08:14:04;;;;;;;31.48;7.68;;;10.90;99.90;;;10.88;68.30;101008.13;5036198;28;20041;-69
2023/02/25 08:16:34;;;;;;;34.13;7.97;;;10.80;99.90;;;10.70;68.64;100983.53;5036396;28;20400;-69
2023/02/25 08:19:03;;;;;;;30.75;8.40;;;10.70;99.90;;;10.86;68.90;100979.91;5036348;28;20068;-70
2023/02/25 08:21:32;;;;;;;28.73;8.10;;;10.90;99.90;;;11.00;68.69;101019.56;5036023;28;20049;-69
2023/02/25 08:24:00;;;;;;;29.35;8.00;;;10.90;99.90;;;9.76;70.07;100914.03;5034987;28;20041;-69
2023/02/25 08:26:29;;;;;;;32.88;7.95;;;10.50;99.90;;;9.98;70.33;101026.75;5035996;28;20175;-69
2023/02/25 08:28:57;;;;;;;36.20;8.30;;;10.10;99.90;;;10.18;71.11;101018.88;5035869;28;20124;-69
2023/02/25 08:31:26;;;;;;;27.75;7.45;;;10.10;99.90;;;10.14;71.70;101017.09;5051610;28;20140;-69
2023/02/25 08:33:58;;;;;;;26.48;7.32;;;10.10;99.90;;;10.37;71.10;101020.63;5035563;28;20411;-69
2023/02/25 08:36:29;;;;;;;29.88;7.38;;;10.30;99.90;;;10.48;68.46;101014.41;5034804;28;20069;-69
2023/02/25 08:38:59;;;;;;;35.13;8.07;;;10.60;99.90;;;10.82;67.88;101020.50;5035928;28;20415;-68
2023/02/25 08:41:29;;;;;;;23.15;6.93;;;10.70;99.90;;;11.34;67.79;101021.19;5036278;28;20037;-69
2023/02/25 08:44:00;;;;;;;23.90;7.47;;;11.10;99.90;;;11.05;65.64;100902.22;5035931;28;20069;-68
2023/02/25 08:46:32;;;;;;;23.90;7.13;;;11.60;99.90;;;11.69;63.22;101020.09;5034559;28;20045;-69
2023/02/25 08:49:02;;;;;;;;;;;11.60;99.90;;;11.83;61.66;101016.50;5035010;28;20745;-68
2023/02/25 08:51:37;;;;;;;24.20;7.63;;;11.80;99.90;;;12.00;60.56;101030.50;5035755;28;19992;-68
2023/02/25 08:54:08;;;;;;;21.70;6.10;;;11.90;99.90;;;12.29;60.32;101023.19;5034464;28;20558;-68
2023/02/25 08:56:36;;;;;;;;;;;12.20;99.90;;;12.21;58.54;101027.69;5036096;28;20069;-68
2023/02/25 08:59:05;;;;;;;27.63;7.78;;;12.30;99.90;;;12.17;58.24;101033.91;5035450;28;20371;-69
2023/02/25 09:01:44;;;;;;;16.77;5.90;;;12.10;99.90;;;12.03;57.19;101017.22;5035477;28;20046;-68
2023/02/25 09:04:17;;;;;;;20.42;6.70;;;12.20;99.90;;;12.24;56.24;101022.34;5034305;28;20054;-68
2023/02/25 09:06:46;;;;;;;14.63;5.65;;;12.10;99.90;;;11.82;54.71;101028.88;5035508;28;20125;-68
2023/02/25 09:09:16;;;;;;;20.80;6.40;;;11.90;99.90;;;11.67;54.77;101029.84;5050674;28;20141;-67
2023/02/25 09:11:46;;;;;;;20.75;6.60;;;11.70;99.90;;;11.56;55.74;101031.66;5033974;28;20119;-67
2023/02/25 09:14:15;;;;;;;20.63;6.23;;;11.60;99.90;;;11.93;56.37;101039.38;5034178;28;20091;-67
2023/02/25 09:16:43;;;;;;;22.27;6.32;;;11.80;99.90;;;12.32;56.59;101041.72;5035021;28;20041;-67
2023/02/25 09:19:16;;;;;;;21.60;7.65;;;12.20;99.90;;;12.11;55.40;101024.22;5034414;28;20065;-68
2023/02/25 09:21:47;;;;;;;18.92;5.80;;;12.30;99.90;;;12.14;55.08;101045.41;5034494;28;20064;-68
2023/02/25 09:24:16;;;;;;;20.30;6.82;;;12.20;99.90;;;12.04;55.21;101043.72;5034103;28;20046;-70
2023/02/25 09:26:45;;;;;;;14.85;6.93;;;12.00;99.90;;;12.34;55.36;101055.84;5033749;28;20049;-69
2023/02/25 09:29:13;;;;;;;16.77;5.63;;;12.20;99.90;;;12.72;54.64;101059.00;5035303;28;20427;-68
2023/02/25 09:31:42;;;;;;;18.95;6.05;;;12.60;99.90;;;12.87;54.10;101069.50;5034738;28;20100;-68
2023/02/25 09:34:13;;;;;;;16.33;6.43;;;12.80;99.90;;;12.83;53.24;101075.75;5034949;28;20041;-68
2023/02/25 09:36:43;;;;;;;20.98;6.38;;;12.80;99.90;;;12.33;53.75;101067.38;5034949;28;20044;-68
2023/02/25 09:39:11;;;;;;;18.93;5.90;;;12.40;99.90;;;12.28;55.14;101045.28;5050314;28;20062;-68
2023/02/25 09:41:49;;;;;;;17.85;6.40;;;12.40;99.90;;;11.78;54.46;101019.19;5034529;28;20059;-69
2023/02/25 09:44:22;;;;;;;17.83;6.45;;;12.20;99.90;;;11.87;55.12;101088.00;5034520;28;20042;-68
2023/02/25 09:46:56;;;;;;;24.23;6.18;;;11.80;99.90;;;11.53;55.42;101087.31;5035055;28;20045;-69
2023/02/25 09:49:31;;;;;;;21.95;6.88;;;11.60;99.90;;;11.37;56.18;101092.66;5033429;28;20053;-69
2023/02/25 09:52:08;;;;;;;20.25;6.82;;;11.40;99.90;;;11.34;56.43;101098.84;5034409;28;20467;-68
2023/02/25 09:54:43;;;;;;;21.58;6.45;;;11.30;99.90;;;11.21;56.90;101109.47;5034513;28;20049;-68
2023/02/25 09:57:17;;;;;;;23.63;6.18;;;11.10;99.90;;;11.11;58.66;101108.63;5034581;28;20042;-69
2023/02/25 09:59:47;;;;;;;24.58;6.32;;;11.10;99.90;;;11.17;61.12;101105.09;5034839;28;20103;-69
2023/02/25 10:02:35;;;;;;;20.83;6.70;;;11.10;99.90;;;11.48;61.93;101090.84;5034271;28;20069;-69
2023/02/25 10:05:22;;;;;;;15.00;6.13;;;11.40;99.90;;;11.99;61.50;101116.22;5034028;28;20041;-69
2023/02/25 10:08:02;;;;;;;19.15;5.95;;;11.80;99.90;;;12.49;61.02;101111.41;5034402;28;20104;-69
2023/02/25 10:10:39;;;;;;;19.67;6.63;;;12.30;99.90;;;12.85;59.91;101113.78;5034043;28;20042;-69
2023/02/25 10:13:23;;;;;;;20.25;6.65;;;12.70;99.90;;;13.08;58.26;101118.88;5034268;28;20103;-69
2023/02/25 10:16:05;;;;;;;17.30;5.85;;;13.00;99.90;;;12.40;56.18;101037.22;5033128;28;20057;-69
2023/02/25 10:19:00;;;;;;;19.15;6.22;;;12.80;99.90;;;12.90;56.03;101119.91;5033969;28;20449;-68
2023/02/25 10:21:54;;;;;;;22.85;7.22;;;12.80;99.90;;;13.08;56.73;101114.44;5033319;28;20048;-69
2023/02/25 10:24:31;;;;;;;21.73;6.80;;;13.00;99.90;;;13.36;56.55;101115.88;5032768;28;20123;-69
2023/02/25 10:27:10;;;;;;;14.13;5.85;;;13.30;99.90;;;13.37;55.26;101114.13;5049373;28;20100;-68
2023/02/25 10:29:45;;;;;;;16.90;6.22;;;13.30;99.90;;;13.58;54.35;101136.00;5033914;28;20045;-68
2023/02/25 10:32:20;;;;;;;18.45;6.90;;;13.50;99.90;;;13.08;54.51;101010.88;5032503;28;20095;-69
2023/02/25 10:34:51;;;;;;;21.58;5.70;;;13.60;99.90;;;13.67;53.01;101136.75;5033525;28;20519;-69
2023/02/25 10:37:25;;;;;;;;;;;13.60;99.90;;;13.65;52.19;101122.59;5033744;28;20500;-69
2023/02/25 10:39:59;;;;;;;15.27;5.97;;;13.60;99.90;;;13.43;51.84;101125.53;5033372;28;20311;-69